Dimonios — 5BTW4 — position and weather

sailwx.info

Track history (hours):
 
Tides and Currents Weather Stations Pressure Air Temp Water Temp Dewpoint Dewpoint Depression Visibility Wind Speed Wind Dir Waves Ship Positions

Dimonios

Last reported at 2018-Feb-23 12:17 UTC. Time now 2018-Feb-23 16:57 UTC.
Position N 39°30' E 002°21'.

Length 188 m; draft 6.1 m.

Type: Ship. MMSI: 209042000.

Date/timePositionNaut miles runAvg speedWind from/ knotsBaromVisibWave heightAir tempDewpointWater temp
2018-Feb-23 12:17N 39°30' E 002°21'619.4
2018-Feb-23 12:00N 39°27' E 002°27'817.2
2018-Feb-23 11:30N 39°31' E 002°37'2 4.4
2018-Feb-23 11:00N 39°33' E 002°38'0 0.0
2018-Feb-23 10:30N 39°33' E 002°38'0 0.0
2018-Feb-23 10:00N 39°33' E 002°38'0 0.0
2018-Feb-23 09:30N 39°33' E 002°38'0 0.0
2018-Feb-23 09:00N 39°33' E 002°38'0 0.0
2018-Feb-23 08:30N 39°33' E 002°38'0 0.0
2018-Feb-23 08:00N 39°33' E 002°38'0 0.0
2018-Feb-23 07:30N 39°33' E 002°38'0 0.0
2018-Feb-23 07:00N 39°33' E 002°38'0 0.0
2018-Feb-23 06:30N 39°33' E 002°38'0 0.0
2018-Feb-23 06:00N 39°33' E 002°38'1 1.0
2018-Feb-23 05:30N 39°33' E 002°38'714.1
2018-Feb-23 05:00N 39°27' E 002°34'9418.1
2018-Feb-22 23:48N 41°00' E 002°15'619.4
2018-Feb-22 23:30N 41°06' E 002°15'1020.0
2018-Feb-22 23:00N 41°16' E 002°15'713.9
2018-Feb-22 22:30N 41°22' E 002°11'0 0.3
2018-Feb-22 22:00N 41°22' E 002°11'0 0.0
2018-Feb-22 21:27N 41°22' E 002°11'0 0.0
2018-Feb-22 20:58N 41°22' E 002°11'0 0.0
2018-Feb-22 20:24N 41°22' E 002°11'0 0.0
2018-Feb-22 18:36N 41°22' E 002°11'0 0.1
2018-Feb-22 18:22N 41°22' E 002°11'411.1
2018-Feb-22 18:01N 41°19' E 002°14'1020.2
2018-Feb-22 17:31N 41°09' E 002°15'6319.5
2018-Feb-22 14:18N 40°06' E 002°16'3618.6
2018-Feb-22 12:21N 39°30' E 002°22'720.1
2018-Feb-22 12:00N 39°26' E 002°29'918.4
2018-Feb-22 11:30N 39°32' E 002°38'1 1.8
2018-Feb-22 11:00N 39°33' E 002°38'0 0.0
2018-Feb-22 10:30N 39°33' E 002°38'0 0.0
2018-Feb-22 10:00N 39°33' E 002°38'0 0.0
2018-Feb-22 09:30N 39°33' E 002°38'0 0.0
2018-Feb-22 09:00N 39°33' E 002°38'0 0.0
2018-Feb-22 08:30N 39°33' E 002°38'0 0.0
2018-Feb-22 08:00N 39°33' E 002°38'0 0.0
2018-Feb-22 07:30N 39°33' E 002°38'0 0.0
2018-Feb-22 07:00N 39°33' E 002°38'0 0.0
2018-Feb-22 06:30N 39°33' E 002°38'0 0.0
2018-Feb-22 06:00N 39°33' E 002°38'1 1.5
2018-Feb-22 05:30N 39°33' E 002°39'916.6
2018-Feb-22 05:00N 39°26' E 002°32'9418.3
2018-Feb-21 23:51N 40°60' E 002°21'719.8
2018-Feb-21 23:31N 41°06' E 002°16'1019.6
2018-Feb-21 23:01N 41°16' E 002°13'7 1.7
2018-Feb-21 18:53N 41°22' E 002°11'3 9.0
2018-Feb-21 18:30N 41°20' E 002°14'1019.4
2018-Feb-21 18:00N 41°10' E 002°15'1019.7
2018-Feb-21 17:30N 41°00' E 002°15'9018.4
2018-Feb-21 12:37N 39°30' E 002°22'220.1
2018-Feb-21 12:30N 39°29' E 002°24'816.2
2018-Feb-21 12:00N 39°29' E 002°34'510.5
2018-Feb-21 11:30N 39°33' E 002°38'0 0.2
2018-Feb-21 11:00N 39°33' E 002°38'0 0.0
2018-Feb-21 10:29N 39°33' E 002°38'0 0.0
2018-Feb-21 09:59N 39°33' E 002°38'0 0.0
2018-Feb-21 09:29N 39°33' E 002°38'0 0.0
2018-Feb-21 08:59N 39°33' E 002°38'0 0.0
2018-Feb-21 08:29N 39°33' E 002°38'0 0.0
2018-Feb-21 07:59N 39°33' E 002°38'0 0.0
2018-Feb-21 07:29N 39°33' E 002°38'0 0.0
2018-Feb-21 06:59N 39°33' E 002°38'0 0.0
2018-Feb-21 06:29N 39°33' E 002°38'0 0.0
2018-Feb-21 05:59N 39°33' E 002°38'1 2.3
2018-Feb-21 05:29N 39°32' E 002°38'918.2
2018-Feb-21 05:00N 39°26' E 002°30'9718.9
2018-Feb-20 23:53N 41°02' E 002°13'719.5
2018-Feb-20 23:30N 41°10' E 002°13'1020.1
2018-Feb-20 23:01N 41°20' E 002°13'3 6.3
2018-Feb-20 22:30N 41°22' E 002°11'0 0.0
2018-Feb-20 21:57N 41°22' E 002°11'0 0.0
2018-Feb-20 21:24N 41°22' E 002°11'0 0.0
2018-Feb-20 21:00N 41°22' E 002°11'0 0.0
2018-Feb-20 20:23N 41°22' E 002°11'0 0.0
2018-Feb-20 20:00N 41°22' E 002°11'0 0.0
2018-Feb-20 19:30N 41°22' E 002°11'0 0.0
2018-Feb-20 19:00N 41°22' E 002°11'0 0.0
2018-Feb-20 18:30N 41°22' E 002°11'2 3.0
2018-Feb-20 18:01N 41°21' E 002°12'1019.5
2018-Feb-20 17:31N 41°12' E 002°15'1020.6
2018-Feb-20 17:00N 41°01' E 002°15'9119.5
2018-Feb-20 12:19N 39°30' E 002°23'618.9
2018-Feb-20 11:59N 39°26' E 002°29'918.3
2018-Feb-20 11:30N 39°32' E 002°38'1 2.3
2018-Feb-20 11:00N 39°33' E 002°38'0 0.0
2018-Feb-20 10:30N 39°33' E 002°38'0 0.0
2018-Feb-20 10:00N 39°33' E 002°38'0 0.0
2018-Feb-20 09:30N 39°33' E 002°38'0 0.0
2018-Feb-20 09:00N 39°33' E 002°38'0 0.0
2018-Feb-20 08:30N 39°33' E 002°38'0 0.0
2018-Feb-20 08:00N 39°33' E 002°38'0 0.0
2018-Feb-20 07:30N 39°33' E 002°38'0 0.0
2018-Feb-20 07:00N 39°33' E 002°38'0 0.0
2018-Feb-20 06:30N 39°33' E 002°38'0 0.0
2018-Feb-20 06:00N 39°33' E 002°38'1 1.2
2018-Feb-20 05:30N 39°33' E 002°38'713.3
2018-Feb-20 05:00N 39°28' E 002°34'815.3
2018-Feb-20 04:30N 39°29' E 002°24'9118.5
2018-Feb-19 23:36N 40°59' E 002°16'220.3
2018-Feb-19 23:30N 41°01' E 002°16'1020.1
2018-Feb-19 23:00N 41°11' E 002°16'1019.3
2018-Feb-19 22:30N 41°21' E 002°12'2 0.9
2018-Feb-19 20:20N 41°22' E 002°11'0 0.0
2018-Feb-19 19:36N 41°22' E 002°11'0 0.0
2018-Feb-19 18:42N 41°22' E 002°11'0 0.0
2018-Feb-19 18:20N 41°22' E 002°11'1 2.2
2018-Feb-19 18:00N 41°21' E 002°11'815.1
2018-Feb-19 17:30N 41°15' E 002°16'1020.4
2018-Feb-19 17:00N 41°04' E 002°16'9419.5
2018-Feb-19 12:10N 39°30' E 002°22'319.4
2018-Feb-19 12:00N 39°28' E 002°25'815.5
2018-Feb-19 11:30N 39°29' E 002°35'5 9.4
2018-Feb-19 11:00N 39°34' E 002°38'0 0.0
2018-Feb-19 10:30N 39°34' E 002°38'0 0.0
2018-Feb-19 10:01N 39°34' E 002°38'0 0.0
2018-Feb-19 09:31N 39°34' E 002°38'0 0.0
2018-Feb-19 09:00N 39°34' E 002°38'0 0.0
2018-Feb-19 08:27N 39°34' E 002°38'0 0.0
2018-Feb-19 08:00N 39°34' E 002°38'0 0.0
2018-Feb-19 07:30N 39°34' E 002°38'0 0.0
2018-Feb-19 07:00N 39°34' E 002°38'0 0.0
2018-Feb-19 06:30N 39°34' E 002°38'0 0.0
2018-Feb-19 06:00N 39°34' E 002°38'0 0.3
2018-Feb-19 05:31N 39°34' E 002°38'713.0
2018-Feb-19 05:00N 39°28' E 002°34'815.2
2018-Feb-19 04:29N 39°29' E 002°24'9218.3
2018-Feb-18 23:25N 41°01' E 002°14'819.2
2018-Feb-18 23:00N 41°09' E 002°14'1020.0
2018-Feb-18 22:31N 41°19' E 002°14'4 7.2
2018-Feb-18 21:56N 41°22' E 002°11'0 0.0
2018-Feb-18 21:30N 41°22' E 002°11'0 0.0
2018-Feb-18 21:00N 41°22' E 002°11'0 0.0
2018-Feb-18 19:28N 41°22' E 002°11'1 2.9
2018-Feb-18 19:00N 41°21' E 002°11'714.8
2018-Feb-18 18:30N 41°14' E 002°14'917.2
2018-Feb-18 18:00N 41°11' E 002°03'816.6
2018-Feb-18 17:30N 41°09' E 001°52'816.2
2018-Feb-18 17:00N 41°07' E 001°42'816.5
2018-Feb-18 16:30N 41°05' E 001°31'3 0.5
2018-Feb-18 10:48N 41°05' E 001°28'619.9
2018-Feb-18 10:30N 41°06' E 001°35'1019.8
2018-Feb-18 10:00N 41°09' E 001°48'1020.2
2018-Feb-18 09:30N 41°12' E 002°01'1020.1
2018-Feb-18 09:00N 41°16' E 002°13'612.6
2018-Feb-18 08:30N 41°22' E 002°11'0 0.1
2018-Feb-18 06:57N 41°22' E 002°11'0 0.0
2018-Feb-18 06:28N 41°22' E 002°11'2 3.2
2018-Feb-18 06:01N 41°21' E 002°12'815.3
2018-Feb-18 05:30N 41°14' E 002°16'917.9
2018-Feb-18 05:01N 41°05' E 002°17'9517.9
2018-Feb-17 23:42N 39°30' E 002°22'420.6
2018-Feb-17 23:30N 39°28' E 002°26'817.0
2018-Feb-17 23:01N 39°30' E 002°36'3 6.3
2018-Feb-17 22:31N 39°33' E 002°38'0 0.0
2018-Feb-17 22:01N 39°33' E 002°38'0 0.0
2018-Feb-17 21:30N 39°33' E 002°38'0 0.0
2018-Feb-17 21:00N 39°33' E 002°38'0 0.0
2018-Feb-17 20:30N 39°33' E 002°38'0 0.0
2018-Feb-17 19:59N 39°33' E 002°38'0 0.0
2018-Feb-17 19:30N 39°33' E 002°38'0 0.0
2018-Feb-17 19:00N 39°33' E 002°38'0 0.0
2018-Feb-17 18:30N 39°33' E 002°38'0 0.0
2018-Feb-17 18:00N 39°33' E 002°38'0 0.0
2018-Feb-17 17:30N 39°33' E 002°38'0 0.0
2018-Feb-17 17:00N 39°33' E 002°38'0 0.0
2018-Feb-17 16:30N 39°33' E 002°38'0 0.0
2018-Feb-17 16:00N 39°33' E 002°38'0 0.0
2018-Feb-17 15:30N 39°33' E 002°38'0 0.0
2018-Feb-17 15:00N 39°33' E 002°38'0 0.0
2018-Feb-17 14:30N 39°33' E 002°38'0 0.0
2018-Feb-17 13:59N 39°33' E 002°38'0 0.0
2018-Feb-17 13:30N 39°33' E 002°38'0 0.0
2018-Feb-17 13:00N 39°33' E 002°38'0 0.0
2018-Feb-17 12:30N 39°33' E 002°38'0 0.0
2018-Feb-17 12:00N 39°33' E 002°38'0 0.0
2018-Feb-17 11:30N 39°33' E 002°38'0 0.0
2018-Feb-17 11:00N 39°33' E 002°38'0 0.0
2018-Feb-17 10:30N 39°33' E 002°38'0 0.0
2018-Feb-17 10:00N 39°33' E 002°38'0 0.0
2018-Feb-17 09:30N 39°33' E 002°38'0 0.0
2018-Feb-17 09:00N 39°33' E 002°38'0 0.0
2018-Feb-17 08:30N 39°33' E 002°38'0 0.0
2018-Feb-17 08:00N 39°33' E 002°38'0 0.0
2018-Feb-17 07:30N 39°33' E 002°38'0 0.0
2018-Feb-17 07:00N 39°33' E 002°38'0 0.0
2018-Feb-17 06:30N 39°33' E 002°38'0 0.0
2018-Feb-17 06:00N 39°33' E 002°38'1 1.6
2018-Feb-17 05:30N 39°33' E 002°39'612.7
2018-Feb-17 05:00N 39°28' E 002°34'2914.4
2018-Feb-17 02:59N 39°53' E 002°17'6319.1
2018-Feb-16 23:40N 40°57' E 002°14'419.8
2018-Feb-16 23:28N 41°01' E 002°14'919.9
2018-Feb-16 23:00N 41°10' E 002°14'1020.0
2018-Feb-16 22:30N 41°20' E 002°13'3 6.0
2018-Feb-16 22:00N 41°22' E 002°11'0 0.0
2018-Feb-16 21:30N 41°22' E 002°11'0 0.0
2018-Feb-16 21:00N 41°22' E 002°11'0 0.0
2018-Feb-16 20:30N 41°22' E 002°11'0 0.0
2018-Feb-16 19:58N 41°22' E 002°11'0 0.0
2018-Feb-16 19:30N 41°22' E 002°11'0 0.0
2018-Feb-16 18:53N 41°22' E 002°11'0 0.0
2018-Feb-16 18:26N 41°22' E 002°11'1 3.0
2018-Feb-16 18:00N 41°21' E 002°11'815.9
2018-Feb-16 17:30N 41°14' E 002°17'918.5
2018-Feb-16 17:00N 41°05' E 002°17'1220.7
2018-Feb-16 16:25N 40°53' E 002°17'820.6
2018-Feb-16 16:00N 40°44' E 002°16'7420.3
2018-Feb-16 12:21N 39°30' E 002°22'720.0
2018-Feb-16 12:01N 39°26' E 002°29'1019.0
2018-Feb-16 11:30N 39°33' E 002°38'1 1.8
2018-Feb-16 11:00N 39°33' E 002°38'0 0.0
2018-Feb-16 10:30N 39°33' E 002°38'0 0.0
2018-Feb-16 10:00N 39°33' E 002°38'0 0.0
2018-Feb-16 09:30N 39°33' E 002°38'0 0.0
2018-Feb-16 09:00N 39°33' E 002°38'0 0.0
2018-Feb-16 08:30N 39°33' E 002°38'0 0.0
2018-Feb-16 08:00N 39°33' E 002°38'0 0.0
2018-Feb-16 07:30N 39°33' E 002°38'0 0.0
2018-Feb-16 07:00N 39°33' E 002°38'0 0.0
2018-Feb-16 06:30N 39°33' E 002°38'0 0.0
2018-Feb-16 06:00N 39°33' E 002°38'1 1.7
2018-Feb-16 05:30N 39°33' E 002°39'612.9
2018-Feb-16 05:00N 39°28' E 002°34'2915.6
2018-Feb-16 03:09N 39°53' E 002°17'4520.0
2018-Feb-16 00:54N 40°38' E 002°16'920.5
2018-Feb-16 00:27N 40°48' E 002°16'919.8
2018-Feb-16 00:00N 40°57' E 002°16'1019.2
2018-Feb-15 23:30N 41°06' E 002°15'1019.5
2018-Feb-15 23:00N 41°16' E 002°14'713.7
2018-Feb-15 22:30N 41°22' E 002°11'0 0.3
2018-Feb-15 21:59N 41°22' E 002°11'0 0.0
2018-Feb-15 21:27N 41°22' E 002°11'0 0.0
2018-Feb-15 21:00N 41°22' E 002°11'0 0.0
2018-Feb-15 20:21N 41°22' E 002°11'0 0.0
2018-Feb-15 18:34N 41°22' E 002°11'0 0.0
2018-Feb-15 18:16N 41°22' E 002°11'1 4.9
2018-Feb-15 18:00N 41°21' E 002°11'816.1
2018-Feb-15 17:30N 41°14' E 002°15'1021.2
2018-Feb-15 17:01N 41°03' E 002°15'9320.0
2018-Feb-15 12:21N 39°30' E 002°23'719.7
2018-Feb-15 12:01N 39°26' E 002°30'1018.7
2018-Feb-15 11:30N 39°33' E 002°39'1 2.2
2018-Feb-15 11:00N 39°33' E 002°38'0 0.0
2018-Feb-15 10:30N 39°33' E 002°38'0 0.0
2018-Feb-15 10:00N 39°33' E 002°38'0 0.0
2018-Feb-15 09:30N 39°33' E 002°38'0 0.0
2018-Feb-15 09:00N 39°33' E 002°38'0 0.0
2018-Feb-15 08:30N 39°33' E 002°38'0 0.0
2018-Feb-15 08:00N 39°33' E 002°38'0 0.0
2018-Feb-15 07:30N 39°33' E 002°38'0 0.0
2018-Feb-15 07:00N 39°33' E 002°38'0 0.0
2018-Feb-15 06:30N 39°33' E 002°38'0 0.0
2018-Feb-15 06:00N 39°33' E 002°38'0 0.5
2018-Feb-15 05:30N 39°33' E 002°38'510.8
2018-Feb-15 05:00N 39°28' E 002°35'9118.4
2018-Feb-15 00:03N 40°58' E 002°13'420.3
2018-Feb-14 23:50N 41°02' E 002°13'620.0
2018-Feb-14 23:30N 41°09' E 002°13'1020.3
2018-Feb-14 23:00N 41°19' E 002°13'4 8.1
2018-Feb-14 22:30N 41°22' E 002°11'0 0.0
2018-Feb-14 21:58N 41°22' E 002°11'0 0.0
2018-Feb-14 21:29N 41°22' E 002°11'0 0.0
2018-Feb-14 19:03N 41°22' E 002°11'0 0.1
2018-Feb-14 18:57N 41°22' E 002°11'0 0.6
2018-Feb-14 18:30N 41°22' E 002°11'3 5.6
2018-Feb-14 18:00N 41°20' E 002°13'612.8
2018-Feb-14 17:30N 41°14' E 002°15'1121.1
2018-Feb-14 17:00N 41°03' E 002°16'6120.2
2018-Feb-14 13:58N 40°02' E 002°17'3219.0
2018-Feb-14 12:16N 39°30' E 002°23'519.4
2018-Feb-14 12:00N 39°27' E 002°28'917.5
2018-Feb-14 11:30N 39°31' E 002°37'2 3.6
2018-Feb-14 11:00N 39°33' E 002°38'0 0.0
2018-Feb-14 10:30N 39°33' E 002°38'0 0.0
2018-Feb-14 10:01N 39°33' E 002°38'0 0.0
2018-Feb-14 09:31N 39°33' E 002°38'0 0.0
2018-Feb-14 09:00N 39°33' E 002°38'0 0.0
2018-Feb-14 08:27N 39°33' E 002°38'0 0.0
2018-Feb-14 08:00N 39°33' E 002°38'0 0.0
2018-Feb-14 07:30N 39°33' E 002°38'0 0.0
2018-Feb-14 07:00N 39°33' E 002°38'0 0.0
2018-Feb-14 06:31N 39°33' E 002°38'0 0.0
2018-Feb-14 06:00N 39°33' E 002°38'0 0.0
2018-Feb-14 05:30N 39°33' E 002°38'4 8.9
2018-Feb-14 05:01N 39°29' E 002°36'1019.5
2018-Feb-14 04:30N 39°25' E 002°24'9619.5
2018-Feb-13 23:35N 41°01' E 002°14'220.1
2018-Feb-13 23:28N 41°03' E 002°14'920.0
2018-Feb-13 23:00N 41°13' E 002°14'918.1
2018-Feb-13 22:31N 41°22' E 002°11'1 0.8
2018-Feb-13 21:28N 41°22' E 002°11'0 0.0
2018-Feb-13 18:13N 41°22' E 002°11'1 4.4
2018-Feb-13 18:00N 41°21' E 002°11'917.2
2018-Feb-13 17:30N 41°13' E 002°16'1020.4
2018-Feb-13 17:00N 41°03' E 002°16'  
Track history (hours):
 
Tides and Currents Weather Stations Pressure Air Temp Water Temp Dewpoint Dewpoint Depression Visibility Wind Speed Wind Dir Waves Ship Positions

Dimonios

Last reported at 2018-Feb-23 12:17 UTC. Time now 2018-Feb-23 16:57 UTC.
Position N 39°30' E 002°21'.

Length 188 m; draft 6.1 m.

Type: Ship. MMSI: 209042000.

Date/timePositionNaut miles runAvg speedWind from/ knotsBaromVisibWave heightAir tempDewpointWater temp
2018-Feb-23 12:17N 39°30' E 002°21'619.4
2018-Feb-23 12:00N 39°27' E 002°27'817.2
2018-Feb-23 11:30N 39°31' E 002°37'2 4.4
2018-Feb-23 11:00N 39°33' E 002°38'0 0.0
2018-Feb-23 10:30N 39°33' E 002°38'0 0.0
2018-Feb-23 10:00N 39°33' E 002°38'0 0.0
2018-Feb-23 09:30N 39°33' E 002°38'0 0.0
2018-Feb-23 09:00N 39°33' E 002°38'0 0.0
2018-Feb-23 08:30N 39°33' E 002°38'0 0.0
2018-Feb-23 08:00N 39°33' E 002°38'0 0.0
2018-Feb-23 07:30N 39°33' E 002°38'0 0.0
2018-Feb-23 07:00N 39°33' E 002°38'0 0.0
2018-Feb-23 06:30N 39°33' E 002°38'0 0.0
2018-Feb-23 06:00N 39°33' E 002°38'1 1.0
2018-Feb-23 05:30N 39°33' E 002°38'714.1
2018-Feb-23 05:00N 39°27' E 002°34'9418.1
2018-Feb-22 23:48N 41°00' E 002°15'619.4
2018-Feb-22 23:30N 41°06' E 002°15'1020.0
2018-Feb-22 23:00N 41°16' E 002°15'713.9
2018-Feb-22 22:30N 41°22' E 002°11'0 0.3
2018-Feb-22 22:00N 41°22' E 002°11'0 0.0
2018-Feb-22 21:27N 41°22' E 002°11'0 0.0
2018-Feb-22 20:58N 41°22' E 002°11'0 0.0
2018-Feb-22 20:24N 41°22' E 002°11'0 0.0
2018-Feb-22 18:36N 41°22' E 002°11'0 0.1
2018-Feb-22 18:22N 41°22' E 002°11'411.1
2018-Feb-22 18:01N 41°19' E 002°14'1020.2
2018-Feb-22 17:31N 41°09' E 002°15'6319.5
2018-Feb-22 14:18N 40°06' E 002°16'3618.6
2018-Feb-22 12:21N 39°30' E 002°22'720.1
2018-Feb-22 12:00N 39°26' E 002°29'918.4
2018-Feb-22 11:30N 39°32' E 002°38'1 1.8
2018-Feb-22 11:00N 39°33' E 002°38'0 0.0
2018-Feb-22 10:30N 39°33' E 002°38'0 0.0
2018-Feb-22 10:00N 39°33' E 002°38'0 0.0
2018-Feb-22 09:30N 39°33' E 002°38'0 0.0
2018-Feb-22 09:00N 39°33' E 002°38'0 0.0
2018-Feb-22 08:30N 39°33' E 002°38'0 0.0
2018-Feb-22 08:00N 39°33' E 002°38'0 0.0
2018-Feb-22 07:30N 39°33' E 002°38'0 0.0
2018-Feb-22 07:00N 39°33' E 002°38'0 0.0
2018-Feb-22 06:30N 39°33' E 002°38'0 0.0
2018-Feb-22 06:00N 39°33' E 002°38'1 1.5
2018-Feb-22 05:30N 39°33' E 002°39'916.6
2018-Feb-22 05:00N 39°26' E 002°32'9418.3
2018-Feb-21 23:51N 40°60' E 002°21'719.8
2018-Feb-21 23:31N 41°06' E 002°16'1019.6
2018-Feb-21 23:01N 41°16' E 002°13'7 1.7
2018-Feb-21 18:53N 41°22' E 002°11'3 9.0
2018-Feb-21 18:30N 41°20' E 002°14'1019.4
2018-Feb-21 18:00N 41°10' E 002°15'1019.7
2018-Feb-21 17:30N 41°00' E 002°15'9018.4
2018-Feb-21 12:37N 39°30' E 002°22'220.1
2018-Feb-21 12:30N 39°29' E 002°24'816.2
2018-Feb-21 12:00N 39°29' E 002°34'510.5
2018-Feb-21 11:30N 39°33' E 002°38'0 0.2
2018-Feb-21 11:00N 39°33' E 002°38'0 0.0
2018-Feb-21 10:29N 39°33' E 002°38'0 0.0
2018-Feb-21 09:59N 39°33' E 002°38'0 0.0
2018-Feb-21 09:29N 39°33' E 002°38'0 0.0
2018-Feb-21 08:59N 39°33' E 002°38'0 0.0
2018-Feb-21 08:29N 39°33' E 002°38'0 0.0
2018-Feb-21 07:59N 39°33' E 002°38'0 0.0
2018-Feb-21 07:29N 39°33' E 002°38'0 0.0
2018-Feb-21 06:59N 39°33' E 002°38'0 0.0
2018-Feb-21 06:29N 39°33' E 002°38'0 0.0
2018-Feb-21 05:59N 39°33' E 002°38'1 2.3
2018-Feb-21 05:29N 39°32' E 002°38'918.2
2018-Feb-21 05:00N 39°26' E 002°30'9718.9
2018-Feb-20 23:53N 41°02' E 002°13'719.5
2018-Feb-20 23:30N 41°10' E 002°13'1020.1
2018-Feb-20 23:01N 41°20' E 002°13'3 6.3
2018-Feb-20 22:30N 41°22' E 002°11'0 0.0
2018-Feb-20 21:57N 41°22' E 002°11'0 0.0
2018-Feb-20 21:24N 41°22' E 002°11'0 0.0
2018-Feb-20 21:00N 41°22' E 002°11'0 0.0
2018-Feb-20 20:23N 41°22' E 002°11'0 0.0
2018-Feb-20 20:00N 41°22' E 002°11'0 0.0
2018-Feb-20 19:30N 41°22' E 002°11'0 0.0
2018-Feb-20 19:00N 41°22' E 002°11'0 0.0
2018-Feb-20 18:30N 41°22' E 002°11'2 3.0
2018-Feb-20 18:01N 41°21' E 002°12'1019.5
2018-Feb-20 17:31N 41°12' E 002°15'1020.6
2018-Feb-20 17:00N 41°01' E 002°15'9119.5
2018-Feb-20 12:19N 39°30' E 002°23'618.9
2018-Feb-20 11:59N 39°26' E 002°29'918.3
2018-Feb-20 11:30N 39°32' E 002°38'1 2.3
2018-Feb-20 11:00N 39°33' E 002°38'0 0.0
2018-Feb-20 10:30N 39°33' E 002°38'0 0.0
2018-Feb-20 10:00N 39°33' E 002°38'0 0.0
2018-Feb-20 09:30N 39°33' E 002°38'0 0.0
2018-Feb-20 09:00N 39°33' E 002°38'0 0.0
2018-Feb-20 08:30N 39°33' E 002°38'0 0.0
2018-Feb-20 08:00N 39°33' E 002°38'0 0.0
2018-Feb-20 07:30N 39°33' E 002°38'0 0.0
2018-Feb-20 07:00N 39°33' E 002°38'0 0.0
2018-Feb-20 06:30N 39°33' E 002°38'0 0.0
2018-Feb-20 06:00N 39°33' E 002°38'1 1.2
2018-Feb-20 05:30N 39°33' E 002°38'713.3
2018-Feb-20 05:00N 39°28' E 002°34'815.3
2018-Feb-20 04:30N 39°29' E 002°24'9118.5
2018-Feb-19 23:36N 40°59' E 002°16'220.3
2018-Feb-19 23:30N 41°01' E 002°16'1020.1
2018-Feb-19 23:00N 41°11' E 002°16'1019.3
2018-Feb-19 22:30N 41°21' E 002°12'2 0.9
2018-Feb-19 20:20N 41°22' E 002°11'0 0.0
2018-Feb-19 19:36N 41°22' E 002°11'0 0.0
2018-Feb-19 18:42N 41°22' E 002°11'0 0.0
2018-Feb-19 18:20N 41°22' E 002°11'1 2.2
2018-Feb-19 18:00N 41°21' E 002°11'815.1
2018-Feb-19 17:30N 41°15' E 002°16'1020.4
2018-Feb-19 17:00N 41°04' E 002°16'9419.5
2018-Feb-19 12:10N 39°30' E 002°22'319.4
2018-Feb-19 12:00N 39°28' E 002°25'815.5
2018-Feb-19 11:30N 39°29' E 002°35'5 9.4
2018-Feb-19 11:00N 39°34' E 002°38'0 0.0
2018-Feb-19 10:30N 39°34' E 002°38'0 0.0
2018-Feb-19 10:01N 39°34' E 002°38'0 0.0
2018-Feb-19 09:31N 39°34' E 002°38'0 0.0
2018-Feb-19 09:00N 39°34' E 002°38'0 0.0
2018-Feb-19 08:27N 39°34' E 002°38'0 0.0
2018-Feb-19 08:00N 39°34' E 002°38'0 0.0
2018-Feb-19 07:30N 39°34' E 002°38'0 0.0
2018-Feb-19 07:00N 39°34' E 002°38'0 0.0
2018-Feb-19 06:30N 39°34' E 002°38'0 0.0
2018-Feb-19 06:00N 39°34' E 002°38'0 0.3
2018-Feb-19 05:31N 39°34' E 002°38'713.0
2018-Feb-19 05:00N 39°28' E 002°34'815.2
2018-Feb-19 04:29N 39°29' E 002°24'9218.3
2018-Feb-18 23:25N 41°01' E 002°14'819.2
2018-Feb-18 23:00N 41°09' E 002°14'1020.0
2018-Feb-18 22:31N 41°19' E 002°14'4 7.2
2018-Feb-18 21:56N 41°22' E 002°11'0 0.0
2018-Feb-18 21:30N 41°22' E 002°11'0 0.0
2018-Feb-18 21:00N 41°22' E 002°11'0 0.0
2018-Feb-18 19:28N 41°22' E 002°11'1 2.9
2018-Feb-18 19:00N 41°21' E 002°11'714.8
2018-Feb-18 18:30N 41°14' E 002°14'917.2
2018-Feb-18 18:00N 41°11' E 002°03'816.6
2018-Feb-18 17:30N 41°09' E 001°52'816.2
2018-Feb-18 17:00N 41°07' E 001°42'816.5
2018-Feb-18 16:30N 41°05' E 001°31'3 0.5
2018-Feb-18 10:48N 41°05' E 001°28'619.9
2018-Feb-18 10:30N 41°06' E 001°35'1019.8
2018-Feb-18 10:00N 41°09' E 001°48'1020.2
2018-Feb-18 09:30N 41°12' E 002°01'1020.1
2018-Feb-18 09:00N 41°16' E 002°13'612.6
2018-Feb-18 08:30N 41°22' E 002°11'0 0.1
2018-Feb-18 06:57N 41°22' E 002°11'0 0.0
2018-Feb-18 06:28N 41°22' E 002°11'2 3.2
2018-Feb-18 06:01N 41°21' E 002°12'815.3
2018-Feb-18 05:30N 41°14' E 002°16'917.9
2018-Feb-18 05:01N 41°05' E 002°17'9517.9
2018-Feb-17 23:42N 39°30' E 002°22'420.6
2018-Feb-17 23:30N 39°28' E 002°26'817.0
2018-Feb-17 23:01N 39°30' E 002°36'3 6.3
2018-Feb-17 22:31N 39°33' E 002°38'0 0.0
2018-Feb-17 22:01N 39°33' E 002°38'0 0.0
2018-Feb-17 21:30N 39°33' E 002°38'0 0.0
2018-Feb-17 21:00N 39°33' E 002°38'0 0.0
2018-Feb-17 20:30N 39°33' E 002°38'0 0.0
2018-Feb-17 19:59N 39°33' E 002°38'0 0.0
2018-Feb-17 19:30N 39°33' E 002°38'0 0.0
2018-Feb-17 19:00N 39°33' E 002°38'0 0.0
2018-Feb-17 18:30N 39°33' E 002°38'0 0.0
2018-Feb-17 18:00N 39°33' E 002°38'0 0.0
2018-Feb-17 17:30N 39°33' E 002°38'0 0.0
2018-Feb-17 17:00N 39°33' E 002°38'0 0.0
2018-Feb-17 16:30N 39°33' E 002°38'0 0.0
2018-Feb-17 16:00N 39°33' E 002°38'0 0.0
2018-Feb-17 15:30N 39°33' E 002°38'0 0.0
2018-Feb-17 15:00N 39°33' E 002°38'0 0.0
2018-Feb-17 14:30N 39°33' E 002°38'0 0.0
2018-Feb-17 13:59N 39°33' E 002°38'0 0.0
2018-Feb-17 13:30N 39°33' E 002°38'0 0.0
2018-Feb-17 13:00N 39°33' E 002°38'0 0.0
2018-Feb-17 12:30N 39°33' E 002°38'0 0.0
2018-Feb-17 12:00N 39°33' E 002°38'0 0.0
2018-Feb-17 11:30N 39°33' E 002°38'0 0.0
2018-Feb-17 11:00N 39°33' E 002°38'0 0.0
2018-Feb-17 10:30N 39°33' E 002°38'0 0.0
2018-Feb-17 10:00N 39°33' E 002°38'0 0.0
2018-Feb-17 09:30N 39°33' E 002°38'0 0.0
2018-Feb-17 09:00N 39°33' E 002°38'0 0.0
2018-Feb-17 08:30N 39°33' E 002°38'0 0.0
2018-Feb-17 08:00N 39°33' E 002°38'0 0.0
2018-Feb-17 07:30N 39°33' E 002°38'0 0.0
2018-Feb-17 07:00N 39°33' E 002°38'0 0.0
2018-Feb-17 06:30N 39°33' E 002°38'0 0.0
2018-Feb-17 06:00N 39°33' E 002°38'1 1.6
2018-Feb-17 05:30N 39°33' E 002°39'612.7
2018-Feb-17 05:00N 39°28' E 002°34'2914.4
2018-Feb-17 02:59N 39°53' E 002°17'6319.1
2018-Feb-16 23:40N 40°57' E 002°14'419.8
2018-Feb-16 23:28N 41°01' E 002°14'919.9
2018-Feb-16 23:00N 41°10' E 002°14'1020.0
2018-Feb-16 22:30N 41°20' E 002°13'3 6.0
2018-Feb-16 22:00N 41°22' E 002°11'0 0.0
2018-Feb-16 21:30N 41°22' E 002°11'0 0.0
2018-Feb-16 21:00N 41°22' E 002°11'0 0.0
2018-Feb-16 20:30N 41°22' E 002°11'0 0.0
2018-Feb-16 19:58N 41°22' E 002°11'0 0.0
2018-Feb-16 19:30N 41°22' E 002°11'0 0.0
2018-Feb-16 18:53N 41°22' E 002°11'0 0.0
2018-Feb-16 18:26N 41°22' E 002°11'1 3.0
2018-Feb-16 18:00N 41°21' E 002°11'815.9
2018-Feb-16 17:30N 41°14' E 002°17'918.5
2018-Feb-16 17:00N 41°05' E 002°17'1220.7
2018-Feb-16 16:25N 40°53' E 002°17'820.6
2018-Feb-16 16:00N 40°44' E 002°16'7420.3
2018-Feb-16 12:21N 39°30' E 002°22'720.0
2018-Feb-16 12:01N 39°26' E 002°29'1019.0
2018-Feb-16 11:30N 39°33' E 002°38'1 1.8
2018-Feb-16 11:00N 39°33' E 002°38'0 0.0
2018-Feb-16 10:30N 39°33' E 002°38'0 0.0
2018-Feb-16 10:00N 39°33' E 002°38'0 0.0
2018-Feb-16 09:30N 39°33' E 002°38'0 0.0
2018-Feb-16 09:00N 39°33' E 002°38'0 0.0
2018-Feb-16 08:30N 39°33' E 002°38'0 0.0
2018-Feb-16 08:00N 39°33' E 002°38'0 0.0
2018-Feb-16 07:30N 39°33' E 002°38'0 0.0
2018-Feb-16 07:00N 39°33' E 002°38'0 0.0
2018-Feb-16 06:30N 39°33' E 002°38'0 0.0
2018-Feb-16 06:00N 39°33' E 002°38'1 1.7
2018-Feb-16 05:30N 39°33' E 002°39'612.9
2018-Feb-16 05:00N 39°28' E 002°34'2915.6
2018-Feb-16 03:09N 39°53' E 002°17'4520.0
2018-Feb-16 00:54N 40°38' E 002°16'920.5
2018-Feb-16 00:27N 40°48' E 002°16'919.8
2018-Feb-16 00:00N 40°57' E 002°16'1019.2
2018-Feb-15 23:30N 41°06' E 002°15'1019.5
2018-Feb-15 23:00N 41°16' E 002°14'713.7
2018-Feb-15 22:30N 41°22' E 002°11'0 0.3
2018-Feb-15 21:59N 41°22' E 002°11'0 0.0
2018-Feb-15 21:27N 41°22' E 002°11'0 0.0
2018-Feb-15 21:00N 41°22' E 002°11'0 0.0
2018-Feb-15 20:21N 41°22' E 002°11'0 0.0
2018-Feb-15 18:34N 41°22' E 002°11'0 0.0
2018-Feb-15 18:16N 41°22' E 002°11'1 4.9
2018-Feb-15 18:00N 41°21' E 002°11'816.1
2018-Feb-15 17:30N 41°14' E 002°15'1021.2
2018-Feb-15 17:01N 41°03' E 002°15'9320.0
2018-Feb-15 12:21N 39°30' E 002°23'719.7
2018-Feb-15 12:01N 39°26' E 002°30'1018.7
2018-Feb-15 11:30N 39°33' E 002°39'1 2.2
2018-Feb-15 11:00N 39°33' E 002°38'0 0.0
2018-Feb-15 10:30N 39°33' E 002°38'0 0.0
2018-Feb-15 10:00N 39°33' E 002°38'0 0.0
2018-Feb-15 09:30N 39°33' E 002°38'0 0.0
2018-Feb-15 09:00N 39°33' E 002°38'0 0.0
2018-Feb-15 08:30N 39°33' E 002°38'0 0.0
2018-Feb-15 08:00N 39°33' E 002°38'0 0.0
2018-Feb-15 07:30N 39°33' E 002°38'0 0.0
2018-Feb-15 07:00N 39°33' E 002°38'0 0.0
2018-Feb-15 06:30N 39°33' E 002°38'0 0.0
2018-Feb-15 06:00N 39°33' E 002°38'0 0.5
2018-Feb-15 05:30N 39°33' E 002°38'510.8
2018-Feb-15 05:00N 39°28' E 002°35'9118.4
2018-Feb-15 00:03N 40°58' E 002°13'420.3
2018-Feb-14 23:50N 41°02' E 002°13'620.0
2018-Feb-14 23:30N 41°09' E 002°13'1020.3
2018-Feb-14 23:00N 41°19' E 002°13'4 8.1
2018-Feb-14 22:30N 41°22' E 002°11'0 0.0
2018-Feb-14 21:58N 41°22' E 002°11'0 0.0
2018-Feb-14 21:29N 41°22' E 002°11'0 0.0
2018-Feb-14 19:03N 41°22' E 002°11'0 0.1
2018-Feb-14 18:57N 41°22' E 002°11'0 0.6
2018-Feb-14 18:30N 41°22' E 002°11'3 5.6
2018-Feb-14 18:00N 41°20' E 002°13'612.8
2018-Feb-14 17:30N 41°14' E 002°15'1121.1
2018-Feb-14 17:00N 41°03' E 002°16'6120.2
2018-Feb-14 13:58N 40°02' E 002°17'3219.0
2018-Feb-14 12:16N 39°30' E 002°23'519.4
2018-Feb-14 12:00N 39°27' E 002°28'917.5
2018-Feb-14 11:30N 39°31' E 002°37'2 3.6
2018-Feb-14 11:00N 39°33' E 002°38'0 0.0
2018-Feb-14 10:30N 39°33' E 002°38'0 0.0
2018-Feb-14 10:01N 39°33' E 002°38'0 0.0
2018-Feb-14 09:31N 39°33' E 002°38'0 0.0
2018-Feb-14 09:00N 39°33' E 002°38'0 0.0
2018-Feb-14 08:27N 39°33' E 002°38'0 0.0
2018-Feb-14 08:00N 39°33' E 002°38'0 0.0
2018-Feb-14 07:30N 39°33' E 002°38'0 0.0
2018-Feb-14 07:00N 39°33' E 002°38'0 0.0
2018-Feb-14 06:31N 39°33' E 002°38'0 0.0
2018-Feb-14 06:00N 39°33' E 002°38'0 0.0
2018-Feb-14 05:30N 39°33' E 002°38'4 8.9
2018-Feb-14 05:01N 39°29' E 002°36'1019.5
2018-Feb-14 04:30N 39°25' E 002°24'9619.5
2018-Feb-13 23:35N 41°01' E 002°14'220.1
2018-Feb-13 23:28N 41°03' E 002°14'920.0
2018-Feb-13 23:00N 41°13' E 002°14'918.1
2018-Feb-13 22:31N 41°22' E 002°11'1 0.8
2018-Feb-13 21:28N 41°22' E 002°11'0 0.0
2018-Feb-13 18:13N 41°22' E 002°11'1 4.4
2018-Feb-13 18:00N 41°21' E 002°11'917.2
2018-Feb-13 17:30N 41°13' E 002°16'1020.4
2018-Feb-13 17:00N 41°03' E 002°16'  

Dump ship's entire track history